createdAt,value
2018-07-19T00:00:53.061Z,20.00
2018-07-19T00:01:52.954Z,20.00
2018-07-19T00:02:52.969Z,20.00
2018-07-19T00:03:53.007Z,20.00
2018-07-19T00:04:53.021Z,20.00
2018-07-19T00:05:53.116Z,20.00
2018-07-19T00:06:53.052Z,20.00
2018-07-19T00:07:53.063Z,20.00
2018-07-19T00:08:53.067Z,20.00
2018-07-19T00:09:53.103Z,20.00
2018-07-19T00:10:53.192Z,20.00
2018-07-19T00:11:53.126Z,20.00
2018-07-19T00:12:53.139Z,20.00
2018-07-19T00:13:53.157Z,20.00
2018-07-19T00:14:53.173Z,20.00
2018-07-19T00:15:53.286Z,20.00
2018-07-19T00:16:53.211Z,20.00
2018-07-19T00:17:53.224Z,20.00
2018-07-19T00:18:53.258Z,20.00
2018-07-19T00:19:53.246Z,20.00
2018-07-19T00:20:53.367Z,20.00
2018-07-19T00:21:53.280Z,20.00
2018-07-19T00:22:53.296Z,20.00
2018-07-19T00:23:53.289Z,20.00
2018-07-19T00:24:53.325Z,20.00
2018-07-19T00:25:53.440Z,20.00
2018-07-19T00:26:53.355Z,20.00
2018-07-19T00:27:53.352Z,20.00
2018-07-19T00:28:53.382Z,20.00
2018-07-19T00:29:53.403Z,20.00
2018-07-19T00:30:53.520Z,20.00
2018-07-19T00:31:53.426Z,16.00
2018-07-19T00:32:53.450Z,16.00
2018-07-19T00:33:53.527Z,16.00
2018-07-19T00:34:53.462Z,16.00
2018-07-19T00:35:53.592Z,16.00
2018-07-19T00:36:53.511Z,20.00
2018-07-19T00:37:53.506Z,16.00
2018-07-19T00:38:53.539Z,20.00
2018-07-19T00:39:53.550Z,20.00
2018-07-19T00:40:53.717Z,20.00
2018-07-19T00:41:53.584Z,20.00
2018-07-19T00:42:53.596Z,20.00
2018-07-19T00:43:53.620Z,20.00
2018-07-19T00:44:53.626Z,20.00
2018-07-19T00:45:53.743Z,20.00
2018-07-19T00:46:53.657Z,20.00
2018-07-19T00:47:53.671Z,20.00
2018-07-19T00:48:53.687Z,20.00
2018-07-19T00:49:53.702Z,20.00
2018-07-19T00:50:53.869Z,20.00
2018-07-19T00:51:53.731Z,20.00
2018-07-19T00:52:53.729Z,20.00
2018-07-19T00:53:53.760Z,20.00
2018-07-19T00:54:53.783Z,20.00
2018-07-19T00:55:53.896Z,16.00
2018-07-19T00:56:53.845Z,16.00
2018-07-19T00:57:53.825Z,16.00
2018-07-19T00:58:53.840Z,16.00
2018-07-19T00:59:53.855Z,16.00
2018-07-19T01:00:53.952Z,16.00
2018-07-19T01:01:53.877Z,16.00
2018-07-19T01:02:53.893Z,16.00
2018-07-19T01:03:53.921Z,16.00
2018-07-19T01:04:53.926Z,16.00
2018-07-19T01:05:54.068Z,16.00
2018-07-19T01:06:53.955Z,16.00
2018-07-19T01:07:53.972Z,16.00
2018-07-19T01:08:53.971Z,16.00
2018-07-19T01:09:53.999Z,20.00
2018-07-19T01:10:54.012Z,20.00
2018-07-19T01:11:54.125Z,16.00
2018-07-19T01:12:54.046Z,20.00
2018-07-19T01:13:54.066Z,16.00
2018-07-19T01:14:54.059Z,20.00
2018-07-19T01:15:54.086Z,16.00
2018-07-19T01:16:54.252Z,16.00
2018-07-19T01:17:54.125Z,16.00
2018-07-19T01:18:54.131Z,16.00
2018-07-19T01:19:54.150Z,16.00
2018-07-19T01:20:54.160Z,16.00
2018-07-19T01:21:54.280Z,16.00
2018-07-19T01:22:54.189Z,16.00
2018-07-19T01:23:54.200Z,16.00
2018-07-19T01:24:54.224Z,16.00
2018-07-19T01:25:54.237Z,16.00
2018-07-19T01:26:54.348Z,20.00
2018-07-19T01:27:54.266Z,20.00
2018-07-19T01:28:54.278Z,16.00
2018-07-19T01:29:54.292Z,20.00
2018-07-19T01:30:54.310Z,16.00
2018-07-19T01:31:54.470Z,16.00
2018-07-19T01:32:54.336Z,16.00
2018-07-19T01:33:54.346Z,16.00
2018-07-19T01:34:54.367Z,16.00
2018-07-19T01:35:54.377Z,16.00
2018-07-19T01:36:54.544Z,16.00
2018-07-19T01:37:54.410Z,16.00
2018-07-19T01:38:54.417Z,20.00
2018-07-19T01:39:54.439Z,16.00
2018-07-19T01:40:54.451Z,20.00
2018-07-19T01:41:54.568Z,20.00
2018-07-19T01:42:54.480Z,20.00
2018-07-19T01:43:54.496Z,20.00
2018-07-19T01:44:54.509Z,20.00
2018-07-19T01:45:54.526Z,20.00
2018-07-19T01:46:54.632Z,20.00
2018-07-19T01:47:54.549Z,20.00
2018-07-19T01:48:54.547Z,20.00
2018-07-19T01:49:54.583Z,20.00
2018-07-19T01:50:54.598Z,20.00
2018-07-19T01:51:54.711Z,20.00
2018-07-19T01:52:54.632Z,20.00
2018-07-19T01:53:54.637Z,20.00
2018-07-19T01:54:54.637Z,16.00
2018-07-19T01:55:54.648Z,20.00
2018-07-19T01:56:54.779Z,20.00
2018-07-19T01:57:54.694Z,16.00
2018-07-19T01:58:54.692Z,16.00
2018-07-19T01:59:54.734Z,20.00
2018-07-19T02:00:54.739Z,20.00
2018-07-19T02:01:54.901Z,20.00
2018-07-19T02:02:54.768Z,20.00
2018-07-19T02:03:54.785Z,20.00
2018-07-19T02:04:54.796Z,20.00
2018-07-19T02:05:54.790Z,20.00
2018-07-19T02:06:54.961Z,20.00
2018-07-19T02:07:54.846Z,16.00
2018-07-19T02:08:54.863Z,16.00
2018-07-19T02:09:54.869Z,16.00
2018-07-19T02:10:54.863Z,16.00
2018-07-19T02:11:55.024Z,16.00
2018-07-19T02:12:54.918Z,16.00
2018-07-19T02:13:54.928Z,16.00
2018-07-19T02:14:54.943Z,16.00
2018-07-19T02:15:54.931Z,16.00
2018-07-19T02:16:54.953Z,16.00
2018-07-19T02:17:55.135Z,20.00
2018-07-19T02:18:54.997Z,20.00
2018-07-19T02:19:55.014Z,16.00
2018-07-19T02:20:55.024Z,20.00
2018-07-19T02:21:55.043Z,16.00
2018-07-19T02:22:55.148Z,16.00
2018-07-19T02:23:55.068Z,20.00
2018-07-19T02:24:55.083Z,20.00
2018-07-19T02:25:55.099Z,20.00
2018-07-19T02:26:55.107Z,20.00
2018-07-19T02:27:55.277Z,20.00
2018-07-19T02:28:55.143Z,20.00
2018-07-19T02:29:55.139Z,20.00
2018-07-19T02:30:55.175Z,20.00
2018-07-19T02:31:55.186Z,20.00
2018-07-19T02:32:55.351Z,20.00
2018-07-19T02:33:55.206Z,20.00
2018-07-19T02:34:55.224Z,20.00
2018-07-19T02:35:55.219Z,20.00
2018-07-19T02:36:55.251Z,20.00
2018-07-19T02:38:55.285Z,20.00
2018-07-19T02:39:55.292Z,20.00
2018-07-19T02:40:55.313Z,16.00
2018-07-19T02:41:55.305Z,20.00
2018-07-19T02:42:55.471Z,20.00
2018-07-19T02:43:55.426Z,16.00
2018-07-19T02:44:55.366Z,16.00
2018-07-19T02:45:55.375Z,20.00
2018-07-19T02:46:55.390Z,16.00
2018-07-19T02:47:55.505Z,20.00
2018-07-19T02:48:55.418Z,20.00
2018-07-19T02:49:55.438Z,20.00
2018-07-19T02:50:55.444Z,20.00
2018-07-19T02:51:55.450Z,20.00
2018-07-19T02:52:55.558Z,20.00
2018-07-19T02:53:55.493Z,20.00
2018-07-19T02:54:55.510Z,20.00
2018-07-19T02:55:55.518Z,20.00
2018-07-19T02:56:55.536Z,20.00
2018-07-19T02:57:55.646Z,20.00
2018-07-19T02:58:55.568Z,20.00
2018-07-19T02:59:55.575Z,20.00
2018-07-19T03:00:55.590Z,20.00
2018-07-19T03:01:55.600Z,20.00
2018-07-19T03:02:55.718Z,20.00
2018-07-19T03:03:55.627Z,16.00
2018-07-19T03:04:55.645Z,16.00
2018-07-19T03:05:55.657Z,16.00
2018-07-19T03:06:55.669Z,16.00
2018-07-19T03:07:55.764Z,16.00
2018-07-19T03:08:55.681Z,20.00
2018-07-19T03:09:55.710Z,20.00
2018-07-19T03:10:55.706Z,20.00
2018-07-19T03:11:55.740Z,16.00
2018-07-19T03:12:55.883Z,16.00
2018-07-19T03:13:55.764Z,16.00
2018-07-19T03:14:55.776Z,16.00
2018-07-19T03:15:55.800Z,16.00
2018-07-19T03:16:55.790Z,16.00
2018-07-19T03:17:55.971Z,16.00
2018-07-19T03:18:55.835Z,16.00
2018-07-19T03:19:55.852Z,16.00
2018-07-19T03:20:55.864Z,16.00
2018-07-19T03:21:55.877Z,16.00
2018-07-19T03:22:55.990Z,16.00
2018-07-19T03:23:55.900Z,20.00
2018-07-19T03:24:55.938Z,16.00
2018-07-19T03:25:55.936Z,20.00
2018-07-19T03:26:55.949Z,20.00
2018-07-19T03:27:56.104Z,20.00
2018-07-19T03:28:55.970Z,16.00
2018-07-19T03:29:55.984Z,16.00
2018-07-19T03:30:56.071Z,20.00
2018-07-19T03:31:56.020Z,16.00
2018-07-19T03:32:56.021Z,20.00
2018-07-19T03:33:56.189Z,20.00
2018-07-19T03:34:56.054Z,16.00
2018-07-19T03:35:56.064Z,20.00
2018-07-19T03:36:56.085Z,16.00
2018-07-19T03:37:56.098Z,20.00
2018-07-19T03:38:56.211Z,16.00
2018-07-19T03:39:56.131Z,20.00
2018-07-19T03:40:56.135Z,16.00
2018-07-19T03:41:56.151Z,16.00
2018-07-19T03:42:56.163Z,16.00
2018-07-19T03:43:56.276Z,16.00
2018-07-19T03:44:56.186Z,16.00
2018-07-19T03:45:56.204Z,16.00
2018-07-19T03:46:56.199Z,16.00
2018-07-19T03:47:56.227Z,16.00
2018-07-19T03:48:56.340Z,20.00
2018-07-19T03:49:56.258Z,20.00
2018-07-19T03:50:56.274Z,20.00
2018-07-19T03:51:56.283Z,20.00
2018-07-19T03:52:56.298Z,20.00
2018-07-19T03:53:56.414Z,20.00
2018-07-19T03:54:56.327Z,20.00
2018-07-19T03:55:56.337Z,20.00
2018-07-19T03:56:56.361Z,20.00
2018-07-19T03:57:56.365Z,20.00
2018-07-19T03:58:56.474Z,20.00
2018-07-19T03:59:56.373Z,20.00
2018-07-19T04:00:56.408Z,20.00
2018-07-19T04:01:56.456Z,20.00
2018-07-19T04:02:56.431Z,20.00
2018-07-19T04:03:56.544Z,20.00
2018-07-19T04:04:56.456Z,20.00
2018-07-19T04:05:56.467Z,20.00
2018-07-19T04:06:56.485Z,20.00
2018-07-19T04:07:56.478Z,20.00
2018-07-19T04:08:56.608Z,20.00
2018-07-19T04:09:56.531Z,20.00
2018-07-19T04:10:56.526Z,20.00
2018-07-19T04:11:56.552Z,20.00
2018-07-19T04:12:56.587Z,20.00
2018-07-19T04:13:56.678Z,20.00
2018-07-19T04:14:56.588Z,16.00
2018-07-19T04:15:56.590Z,16.00
2018-07-19T04:16:56.625Z,16.00
2018-07-19T04:17:56.636Z,20.00
2018-07-19T04:18:56.728Z,16.00
2018-07-19T04:19:56.661Z,20.00
2018-07-19T04:20:56.677Z,20.00
2018-07-19T04:21:56.689Z,20.00
2018-07-19T04:22:56.698Z,20.00
2018-07-19T04:23:56.821Z,20.00
2018-07-19T04:24:56.727Z,20.00
2018-07-19T04:25:56.743Z,20.00
2018-07-19T04:26:56.754Z,20.00
2018-07-19T04:27:56.762Z,20.00
2018-07-19T04:28:56.881Z,20.00
2018-07-19T04:29:56.792Z,20.00
2018-07-19T04:30:56.801Z,20.00
2018-07-19T04:31:56.814Z,20.00
2018-07-19T04:32:56.832Z,20.00
2018-07-19T04:33:56.945Z,20.00
2018-07-19T04:34:56.851Z,20.00
2018-07-19T04:35:56.866Z,20.00
2018-07-19T04:36:56.875Z,20.00
2018-07-19T04:37:56.898Z,20.00
2018-07-19T04:38:56.984Z,20.00
2018-07-19T04:39:56.919Z,20.00
2018-07-19T04:40:56.932Z,20.00
2018-07-19T04:41:56.944Z,20.00
2018-07-19T04:42:56.961Z,20.00
2018-07-19T04:43:56.966Z,20.00
2018-07-19T04:44:57.114Z,20.00
2018-07-19T04:45:57.000Z,20.00
2018-07-19T04:46:57.000Z,20.00
2018-07-19T04:47:57.027Z,20.00
2018-07-19T04:48:57.039Z,20.00
2018-07-19T04:49:57.154Z,20.00
2018-07-19T04:50:57.061Z,20.00
2018-07-19T04:51:57.056Z,20.00
2018-07-19T04:52:57.092Z,20.00
2018-07-19T04:53:57.104Z,20.00
2018-07-19T04:54:57.260Z,20.00
2018-07-19T04:55:57.111Z,20.00
2018-07-19T04:56:57.146Z,20.00
2018-07-19T04:57:57.137Z,20.00
2018-07-19T04:58:57.162Z,20.00
2018-07-19T04:59:57.281Z,20.00
2018-07-19T05:00:57.193Z,20.00
2018-07-19T05:01:57.203Z,20.00
2018-07-19T05:02:57.200Z,20.00
2018-07-19T05:03:57.229Z,20.00
2018-07-19T05:04:57.345Z,20.00
2018-07-19T05:05:57.255Z,20.00
2018-07-19T05:06:57.278Z,20.00
2018-07-19T05:07:57.280Z,20.00
2018-07-19T05:08:57.295Z,20.00
2018-07-19T05:09:57.402Z,20.00
2018-07-19T05:10:57.327Z,20.00
2018-07-19T05:11:57.312Z,20.00
2018-07-19T05:12:57.347Z,20.00
2018-07-19T05:13:57.377Z,20.00
2018-07-19T05:14:57.472Z,20.00
2018-07-19T05:15:57.385Z,20.00
2018-07-19T05:16:57.404Z,20.00
2018-07-19T05:17:57.410Z,20.00
2018-07-19T05:18:57.450Z,20.00
2018-07-19T05:19:57.535Z,20.00
2018-07-19T05:20:57.446Z,16.00
2018-07-19T05:21:57.461Z,20.00
2018-07-19T05:22:57.473Z,20.00
2018-07-19T05:23:57.486Z,20.00
2018-07-19T05:24:57.599Z,20.00
2018-07-19T05:25:57.508Z,20.00
2018-07-19T05:26:57.532Z,16.00
2018-07-19T05:27:57.550Z,16.00
2018-07-19T05:28:57.550Z,16.00
2018-07-19T05:29:57.664Z,20.00
2018-07-19T05:30:57.576Z,20.00
2018-07-19T05:31:57.593Z,20.00
2018-07-19T05:32:57.602Z,20.00
2018-07-19T05:33:57.610Z,20.00
2018-07-19T05:34:57.711Z,20.00
2018-07-19T05:35:57.624Z,20.00
2018-07-19T05:36:57.650Z,16.00
2018-07-19T05:37:57.660Z,20.00
2018-07-19T05:38:57.687Z,20.00
2018-07-19T05:39:57.840Z,16.00
2018-07-19T05:40:57.704Z,16.00
2018-07-19T05:41:57.770Z,20.00
2018-07-19T05:42:57.729Z,20.00
2018-07-19T05:43:57.745Z,20.00
2018-07-19T05:44:57.855Z,16.00
2018-07-19T05:45:57.766Z,16.00
2018-07-19T05:46:57.786Z,16.00
2018-07-19T05:47:57.792Z,20.00
2018-07-19T05:48:57.786Z,20.00
2018-07-19T05:49:57.918Z,16.00
2018-07-19T05:50:57.832Z,20.00
2018-07-19T05:51:57.843Z,20.00
2018-07-19T05:52:57.856Z,20.00
2018-07-19T05:53:57.865Z,20.00
2018-07-19T05:54:58.013Z,20.00
2018-07-19T05:55:57.898Z,20.00
2018-07-19T05:56:57.889Z,20.00
2018-07-19T05:57:57.909Z,20.00
2018-07-19T05:58:57.933Z,16.00
2018-07-19T05:59:57.928Z,20.00
2018-07-19T06:00:58.055Z,20.00
2018-07-19T06:01:57.975Z,16.00
2018-07-19T06:02:57.968Z,20.00
2018-07-19T06:03:57.997Z,20.00
2018-07-19T06:04:58.012Z,20.00
2018-07-19T06:05:58.175Z,16.00
2018-07-19T06:06:58.034Z,16.00
2018-07-19T06:07:58.032Z,20.00
2018-07-19T06:08:58.060Z,20.00
2018-07-19T06:09:58.076Z,20.00
2018-07-19T06:10:58.182Z,16.00
2018-07-19T06:11:58.097Z,16.00
2018-07-19T06:12:58.097Z,20.00
2018-07-19T06:13:58.124Z,16.00
2018-07-19T06:14:58.115Z,16.00
2018-07-19T06:15:58.346Z,20.00
2018-07-19T06:16:58.160Z,20.00
2018-07-19T06:17:58.199Z,20.00
2018-07-19T06:18:58.191Z,16.00
2018-07-19T06:19:58.204Z,20.00
2018-07-19T06:20:58.342Z,20.00
2018-07-19T06:21:58.207Z,20.00
2018-07-19T06:22:58.245Z,20.00
2018-07-19T06:23:58.251Z,20.00
2018-07-19T06:24:58.267Z,20.00
2018-07-19T06:25:58.373Z,20.00
2018-07-19T06:26:58.284Z,20.00
2018-07-19T06:27:58.300Z,16.00
2018-07-19T06:28:58.318Z,20.00
2018-07-19T06:29:58.330Z,16.00
2018-07-19T06:30:58.435Z,20.00
2018-07-19T06:31:58.339Z,20.00
2018-07-19T06:32:58.351Z,20.00
2018-07-19T06:33:58.383Z,20.00
2018-07-19T06:34:58.391Z,20.00
2018-07-19T06:35:58.499Z,20.00
2018-07-19T06:36:58.421Z,20.00
2018-07-19T06:37:58.429Z,20.00
2018-07-19T06:38:58.447Z,20.00
2018-07-19T06:39:58.455Z,20.00
2018-07-19T06:40:58.564Z,20.00
2018-07-19T06:41:58.529Z,20.00
2018-07-19T06:42:58.551Z,20.00
2018-07-19T06:43:58.553Z,20.00
2018-07-19T06:44:58.570Z,20.00
2018-07-19T06:45:58.734Z,20.00
2018-07-19T06:46:58.596Z,20.00
2018-07-19T06:47:58.610Z,20.00
2018-07-19T06:48:58.623Z,20.00
2018-07-19T06:49:58.634Z,20.00
2018-07-19T06:50:58.749Z,20.00
2018-07-19T06:51:58.659Z,20.00
2018-07-19T06:52:58.616Z,16.00
2018-07-19T06:53:58.635Z,20.00
2018-07-19T06:54:58.647Z,20.00
2018-07-19T06:55:58.803Z,20.00
2018-07-19T06:56:58.666Z,20.00
2018-07-19T06:57:58.680Z,16.00
2018-07-19T06:58:58.695Z,16.00
2018-07-19T06:59:58.689Z,20.00
2018-07-19T07:00:58.875Z,20.00
2018-07-19T07:01:58.723Z,20.00
2018-07-19T07:02:58.743Z,20.00
2018-07-19T07:03:58.738Z,16.00
2018-07-19T07:04:58.769Z,16.00
2018-07-19T07:05:58.873Z,20.00
2018-07-19T07:06:58.791Z,20.00
2018-07-19T07:07:58.805Z,16.00
2018-07-19T07:08:58.854Z,16.00
2018-07-19T07:09:58.824Z,16.00
2018-07-19T07:10:58.974Z,20.00
2018-07-19T07:11:58.858Z,16.00
2018-07-19T07:12:58.863Z,20.00
2018-07-19T07:13:58.881Z,20.00
2018-07-19T07:14:58.935Z,20.00
2018-07-19T07:15:58.901Z,20.00
2018-07-19T07:16:59.012Z,20.00
2018-07-19T07:17:58.909Z,20.00
2018-07-19T07:18:58.937Z,20.00
2018-07-19T07:19:58.952Z,20.00
2018-07-19T07:20:58.965Z,20.00
2018-07-19T07:21:59.074Z,20.00
2018-07-19T07:22:58.970Z,20.00
2018-07-19T07:23:59.002Z,20.00
2018-07-19T07:24:59.010Z,20.00
2018-07-19T07:25:59.028Z,20.00
2018-07-19T07:26:59.169Z,20.00
2018-07-19T07:27:59.052Z,20.00
2018-07-19T07:28:59.045Z,20.00
2018-07-19T07:29:59.073Z,20.00
2018-07-19T07:30:59.081Z,16.00
2018-07-19T07:31:59.197Z,20.00
2018-07-19T07:32:59.115Z,20.00
2018-07-19T07:33:59.155Z,20.00
2018-07-19T07:34:59.124Z,20.00
2018-07-19T07:35:59.142Z,20.00
2018-07-19T07:36:59.257Z,20.00
2018-07-19T07:37:59.174Z,20.00
2018-07-19T07:38:59.281Z,20.00
2018-07-19T07:39:59.190Z,20.00
2018-07-19T07:40:59.207Z,20.00
2018-07-19T07:41:59.223Z,20.00
2018-07-19T07:43:59.245Z,20.00
2018-07-19T07:44:59.235Z,20.00
2018-07-19T07:45:59.269Z,20.00
2018-07-19T07:46:59.359Z,20.00
2018-07-19T07:47:59.301Z,20.00
2018-07-19T07:48:59.303Z,20.00
2018-07-19T07:49:59.314Z,20.00
2018-07-19T07:50:59.320Z,20.00
2018-07-19T07:51:59.448Z,20.00
2018-07-19T07:52:59.358Z,20.00
2018-07-19T07:53:59.364Z,20.00
2018-07-19T07:54:59.386Z,20.00
2018-07-19T07:55:59.372Z,20.00
2018-07-19T07:56:59.497Z,20.00
2018-07-19T07:57:59.403Z,20.00
2018-07-19T07:58:59.426Z,20.00
2018-07-19T07:59:59.437Z,20.00
2018-07-19T08:00:59.430Z,20.00
2018-07-19T08:01:59.458Z,20.00
2018-07-19T08:02:59.474Z,20.00
2018-07-19T08:03:59.490Z,20.00
2018-07-19T08:04:59.486Z,20.00
2018-07-19T08:05:59.495Z,20.00
2018-07-19T08:06:59.606Z,20.00
2018-07-19T08:07:59.539Z,20.00
2018-07-19T08:08:59.609Z,20.00
2018-07-19T08:09:59.568Z,20.00
2018-07-19T08:10:59.570Z,20.00
2018-07-19T08:11:59.678Z,20.00
2018-07-19T08:12:59.596Z,20.00
2018-07-19T08:13:59.612Z,20.00
2018-07-19T08:14:59.619Z,20.00
2018-07-19T08:15:59.635Z,20.00
2018-07-19T08:16:59.789Z,20.00
2018-07-19T08:17:59.654Z,20.00
2018-07-19T08:18:59.664Z,20.00
2018-07-19T08:19:59.674Z,20.00
2018-07-19T08:20:59.693Z,20.00
2018-07-19T08:21:59.801Z,20.00
2018-07-19T08:22:59.699Z,16.00
2018-07-19T08:23:59.725Z,16.00
2018-07-19T08:24:59.740Z,16.00
2018-07-19T08:25:59.746Z,20.00
2018-07-19T08:26:59.859Z,16.00
2018-07-19T08:27:59.781Z,16.00
2018-07-19T08:28:59.832Z,16.00
2018-07-19T08:29:59.801Z,16.00
2018-07-19T08:30:59.809Z,16.00
2018-07-19T08:31:59.929Z,16.00
2018-07-19T08:32:59.811Z,16.00
2018-07-19T08:33:59.854Z,20.00
2018-07-19T08:34:59.859Z,16.00
2018-07-19T08:35:59.910Z,16.00
2018-07-19T08:36:59.984Z,20.00
2018-07-19T08:37:59.888Z,16.00
2018-07-19T08:38:59.884Z,16.00
2018-07-19T08:39:59.915Z,16.00
2018-07-19T08:40:59.929Z,16.00
2018-07-19T08:41:59.945Z,20.00
2018-07-19T08:43:00.107Z,16.00
2018-07-19T08:43:59.966Z,16.00
2018-07-19T08:44:59.983Z,20.00
2018-07-19T08:45:59.989Z,16.00
2018-07-19T08:47:00.000Z,16.00
2018-07-19T08:48:00.101Z,16.00
2018-07-19T08:49:00.062Z,16.00
2018-07-19T08:50:00.041Z,16.00
2018-07-19T08:51:00.046Z,20.00
2018-07-19T08:52:00.059Z,16.00
2018-07-19T08:53:00.169Z,16.00
2018-07-19T08:54:00.082Z,20.00
2018-07-19T08:55:00.079Z,16.00
2018-07-19T08:56:01.415Z,16.00
2018-07-19T08:57:00.118Z,16.00
2018-07-19T08:58:00.279Z,16.00
2018-07-19T08:59:00.139Z,16.00
2018-07-19T09:00:00.157Z,16.00
2018-07-19T09:01:00.165Z,16.00
2018-07-19T09:02:00.162Z,16.00
2018-07-19T09:03:00.289Z,16.00
2018-07-19T09:04:00.207Z,16.00
2018-07-19T09:05:00.212Z,16.00
2018-07-19T09:06:00.203Z,16.00
2018-07-19T09:07:00.235Z,16.00
2018-07-19T09:08:00.349Z,16.00
2018-07-19T09:09:00.262Z,16.00
2018-07-19T09:10:00.275Z,16.00
2018-07-19T09:11:00.284Z,16.00
2018-07-19T09:12:00.296Z,16.00
2018-07-19T09:13:00.434Z,16.00
2018-07-19T09:14:00.356Z,16.00
2018-07-19T09:15:00.308Z,16.00
2018-07-19T09:16:00.346Z,20.00
2018-07-19T09:17:00.334Z,20.00
2018-07-19T09:18:00.463Z,20.00
2018-07-19T09:19:00.376Z,20.00
2018-07-19T09:20:00.392Z,20.00
2018-07-19T09:21:00.397Z,20.00
2018-07-19T09:22:00.407Z,20.00
2018-07-19T09:23:00.528Z,20.00
2018-07-19T09:24:00.436Z,20.00
2018-07-19T09:25:00.426Z,24.00
2018-07-19T09:26:00.466Z,24.00
2018-07-19T09:27:00.472Z,24.00
2018-07-19T09:28:00.581Z,28.00
2018-07-19T09:29:00.494Z,28.00
2018-07-19T09:30:00.508Z,28.00
2018-07-19T09:31:00.504Z,32.00
2018-07-19T09:32:00.529Z,36.00
2018-07-19T09:33:00.691Z,40.00
2018-07-19T09:34:00.542Z,48.00
2018-07-19T09:35:00.578Z,52.00
2018-07-19T09:36:00.576Z,60.00
2018-07-19T09:37:00.574Z,64.00
2018-07-19T09:38:00.700Z,76.00
2018-07-19T09:39:00.609Z,88.00
2018-07-19T09:40:00.623Z,80.00
2018-07-19T09:41:00.618Z,92.00
2018-07-19T09:42:00.657Z,108.00
2018-07-19T09:43:00.809Z,124.00
2018-07-19T09:44:00.649Z,140.00
2018-07-19T09:45:00.689Z,160.00
2018-07-19T09:46:00.695Z,180.00
2018-07-19T09:47:00.691Z,204.00
2018-07-19T09:48:00.826Z,232.00
2018-07-19T09:49:00.727Z,256.00
2018-07-19T09:50:00.724Z,284.00
2018-07-19T09:51:00.763Z,312.00
2018-07-19T09:52:00.762Z,348.00
2018-07-19T09:53:00.878Z,376.00
2018-07-19T09:54:00.788Z,412.00
2018-07-19T09:55:00.783Z,448.00
2018-07-19T09:56:00.813Z,488.00
2018-07-19T09:57:01.068Z,520.00
2018-07-19T09:58:00.940Z,560.00
2018-07-19T09:59:00.844Z,600.00
2018-07-19T10:00:00.842Z,636.00
2018-07-19T10:01:00.873Z,676.00
2018-07-19T10:02:00.880Z,720.00
2018-07-19T10:03:00.895Z,760.00
2018-07-19T10:04:01.005Z,804.00
2018-07-19T10:05:00.927Z,848.00
2018-07-19T10:06:00.937Z,896.00
2018-07-19T10:07:00.944Z,952.00
2018-07-19T10:08:00.957Z,1008.00
2018-07-19T10:09:01.065Z,1068.00
2018-07-19T10:10:01.007Z,1120.00
2018-07-19T10:11:00.984Z,1176.00
2018-07-19T10:12:01.019Z,1232.00
2018-07-19T10:13:01.016Z,1288.00
2018-07-19T10:14:01.178Z,1344.00
2018-07-19T10:15:01.036Z,1396.00
2018-07-19T10:16:01.047Z,1452.00
2018-07-19T10:17:01.059Z,1488.00
2018-07-19T10:18:01.074Z,1556.00
2018-07-19T10:19:01.187Z,1604.00
2018-07-19T10:20:01.098Z,1664.00
2018-07-19T10:21:01.104Z,1740.00
2018-07-19T10:22:01.122Z,1804.00
2018-07-19T10:23:01.139Z,1896.00
2018-07-19T10:24:01.279Z,1968.00
2018-07-19T10:25:01.162Z,2076.00
2018-07-19T10:26:01.168Z,2152.00
2018-07-19T10:27:01.183Z,2244.00
2018-07-19T10:28:01.190Z,2352.00
2018-07-19T10:29:01.307Z,2484.00
2018-07-19T10:30:01.213Z,2564.00
2018-07-19T10:31:01.230Z,2648.00
2018-07-19T10:32:01.259Z,2664.00
2018-07-19T10:33:01.260Z,2728.00
2018-07-19T10:34:01.396Z,2784.00
2018-07-19T10:35:01.280Z,2860.00
2018-07-19T10:36:01.273Z,2976.00
2018-07-19T10:37:01.301Z,3044.00
2018-07-19T10:38:01.312Z,3120.00
2018-07-19T10:39:01.426Z,3200.00
2018-07-19T10:40:01.346Z,3304.00
2018-07-19T10:41:01.328Z,3384.00
2018-07-19T10:42:01.361Z,3476.00
2018-07-19T10:43:01.405Z,3576.00
2018-07-19T10:44:01.545Z,3756.00
2018-07-19T10:45:01.379Z,4052.00
2018-07-19T10:46:01.438Z,4452.00
2018-07-19T10:47:01.427Z,5024.00
2018-07-19T10:48:01.439Z,5656.00
2018-07-19T10:49:01.555Z,6084.00
2018-07-19T10:50:01.468Z,6340.00
2018-07-19T10:51:01.458Z,6552.00
2018-07-19T10:52:01.543Z,6680.00
2018-07-19T10:53:01.498Z,6800.00
2018-07-19T10:54:01.647Z,6840.00
2018-07-19T10:55:01.528Z,6880.00
2018-07-19T10:56:01.538Z,6936.00
2018-07-19T10:57:01.556Z,7016.00
2018-07-19T10:58:01.582Z,7076.00
2018-07-19T10:59:01.732Z,7124.00
2018-07-19T11:00:01.600Z,7260.00
2018-07-19T11:01:01.611Z,7244.00
2018-07-19T11:02:01.627Z,7388.00
2018-07-19T11:03:01.641Z,7508.00
2018-07-19T11:04:01.799Z,7556.00
2018-07-19T11:05:01.667Z,7588.00
2018-07-19T11:06:01.683Z,7560.00
2018-07-19T11:07:01.671Z,7716.00
2018-07-19T11:08:01.709Z,7788.00
2018-07-19T11:09:01.833Z,7916.00
2018-07-19T11:10:01.741Z,7944.00
2018-07-19T11:11:01.752Z,8028.00
2018-07-19T11:12:01.769Z,7988.00
2018-07-19T11:13:01.785Z,8192.00
2018-07-19T11:14:01.893Z,8280.00
2018-07-19T11:15:01.817Z,8256.00
2018-07-19T11:16:01.822Z,8372.00
2018-07-19T11:17:01.842Z,8488.00
2018-07-19T11:18:01.857Z,8592.00
2018-07-19T11:19:01.873Z,8628.00
2018-07-19T11:20:01.985Z,8664.00
2018-07-19T11:21:01.900Z,8844.00
2018-07-19T11:22:01.916Z,8940.00
2018-07-19T11:23:01.937Z,9104.00
2018-07-19T11:24:01.941Z,9212.00
2018-07-19T11:25:02.115Z,9324.00
2018-07-19T11:26:01.975Z,9396.00
2018-07-19T11:27:01.969Z,9500.00
2018-07-19T11:28:02.006Z,9636.00
2018-07-19T11:29:02.004Z,9828.00
2018-07-19T11:30:02.140Z,9900.00
2018-07-19T11:31:02.052Z,9972.00
2018-07-19T11:32:02.070Z,10116.00
2018-07-19T11:33:02.085Z,10284.00
2018-07-19T11:34:02.089Z,10344.00
2018-07-19T11:35:02.219Z,10448.00
2018-07-19T11:36:02.111Z,10592.00
2018-07-19T11:37:02.128Z,10696.00
2018-07-19T11:38:02.165Z,10848.00
2018-07-19T11:39:02.162Z,10976.00
2018-07-19T11:40:02.346Z,11080.00
2018-07-19T11:41:02.209Z,11252.00
2018-07-19T11:42:02.232Z,11400.00
2018-07-19T11:43:02.248Z,11572.00
2018-07-19T11:44:02.276Z,11688.00
2018-07-19T11:45:02.428Z,11940.00
2018-07-19T11:46:02.301Z,12120.00
2018-07-19T11:47:02.293Z,12272.00
2018-07-19T11:48:02.322Z,12340.00
2018-07-19T11:49:02.344Z,12576.00
2018-07-19T11:50:02.462Z,12716.00
2018-07-19T11:51:02.381Z,12852.00
2018-07-19T11:52:02.395Z,13136.00
2018-07-19T11:53:02.399Z,13348.00
2018-07-19T11:54:02.432Z,13600.00
2018-07-19T11:55:02.448Z,13892.00
2018-07-19T11:56:02.466Z,14084.00
2018-07-19T11:57:02.478Z,14364.00
2018-07-19T11:58:02.498Z,14664.00
2018-07-19T11:59:02.507Z,15264.00
2018-07-19T12:00:02.629Z,15488.00
2018-07-19T12:01:02.534Z,15712.00
2018-07-19T12:02:02.554Z,15968.00
2018-07-19T12:03:02.592Z,16160.00
2018-07-19T12:04:02.608Z,16544.00
2018-07-19T12:05:02.728Z,16832.00
2018-07-19T12:06:02.639Z,17184.00
2018-07-19T12:07:02.644Z,17376.00
2018-07-19T12:08:02.683Z,17600.00
2018-07-19T12:09:02.698Z,17824.00
2018-07-19T12:10:02.868Z,17984.00
2018-07-19T12:11:02.728Z,18464.00
2018-07-19T12:12:02.748Z,18624.00
2018-07-19T12:13:02.771Z,18816.00
2018-07-19T12:14:02.790Z,18944.00
2018-07-19T12:15:02.908Z,19200.00
2018-07-19T12:16:02.825Z,19584.00
2018-07-19T12:17:02.848Z,19840.00
2018-07-19T12:18:02.932Z,19968.00
2018-07-19T12:19:02.884Z,20192.00
2018-07-19T12:20:03.007Z,20096.00
2018-07-19T12:21:02.896Z,20416.00
2018-07-19T12:22:02.937Z,20448.00
2018-07-19T12:23:02.964Z,20640.00
2018-07-19T12:24:02.973Z,20960.00
2018-07-19T12:25:03.100Z,21184.00
2018-07-19T12:26:03.017Z,21152.00
2018-07-19T12:27:03.034Z,21280.00
2018-07-19T12:28:03.050Z,21728.00
2018-07-19T12:29:03.074Z,21920.00
2018-07-19T12:30:03.198Z,22272.00
2018-07-19T12:31:03.110Z,22176.00
2018-07-19T12:32:03.134Z,22400.00
2018-07-19T12:33:03.151Z,22464.00
2018-07-19T12:34:03.173Z,23328.00
2018-07-19T12:35:03.340Z,23584.00
2018-07-19T12:36:03.189Z,23808.00
2018-07-19T12:37:03.230Z,23456.00
2018-07-19T12:38:03.251Z,23968.00
2018-07-19T12:39:03.251Z,24832.00
2018-07-19T12:40:03.445Z,25536.00
2018-07-19T12:41:03.307Z,25920.00
2018-07-19T12:42:03.313Z,26464.00